createdAt,value
2024-01-19T00:01:41.416Z,-6.60
2024-01-19T00:04:08.507Z,-6.66
2024-01-19T00:06:39.040Z,-6.64
2024-01-19T00:09:06.641Z,-6.66
2024-01-19T00:11:33.706Z,-6.65
2024-01-19T00:14:00.645Z,-6.61
2024-01-19T00:16:27.666Z,-6.57
2024-01-19T00:18:54.844Z,-6.57
2024-01-19T00:21:21.790Z,-6.57
2024-01-19T00:23:49.184Z,-6.55
2024-01-19T00:26:16.217Z,-6.51
2024-01-19T00:28:44.333Z,-6.48
2024-01-19T00:31:11.292Z,-6.47
2024-01-19T00:33:38.172Z,-6.47
2024-01-19T00:36:06.019Z,-6.50
2024-01-19T00:38:33.066Z,-6.53
2024-01-19T00:41:00.242Z,-6.54
2024-01-19T00:43:27.215Z,-6.56
2024-01-19T00:45:54.172Z,-6.58
2024-01-19T00:48:21.265Z,-6.55
2024-01-19T00:50:48.403Z,-6.56
2024-01-19T00:53:15.418Z,-6.57
2024-01-19T00:55:42.365Z,-6.51
2024-01-19T00:58:11.860Z,-6.49
2024-01-19T01:00:39.017Z,-6.45
2024-01-19T01:03:06.015Z,-6.42
2024-01-19T01:05:33.099Z,-6.38
2024-01-19T01:08:00.165Z,-6.36
2024-01-19T01:10:27.244Z,-6.36
2024-01-19T01:12:54.418Z,-6.34
2024-01-19T01:15:21.499Z,-6.34
2024-01-19T01:17:48.523Z,-6.36
2024-01-19T01:20:17.505Z,-6.36
2024-01-19T01:22:44.606Z,-6.41
2024-01-19T01:25:11.669Z,-6.42
2024-01-19T01:27:38.629Z,-6.40
2024-01-19T01:30:10.172Z,-6.35
2024-01-19T01:32:37.393Z,-6.32
2024-01-19T01:35:04.798Z,-6.33
2024-01-19T01:37:32.385Z,-6.33
2024-01-19T01:39:59.489Z,-6.32
2024-01-19T01:42:26.420Z,-6.39
2024-01-19T01:44:53.442Z,-6.24
2024-01-19T01:47:20.464Z,-6.24
2024-01-19T01:49:47.642Z,-6.32
2024-01-19T01:52:14.896Z,-6.33
2024-01-19T01:54:41.827Z,-6.27
2024-01-19T01:57:09.032Z,-6.22
2024-01-19T01:59:36.152Z,-6.27
2024-01-19T02:02:03.654Z,-6.31
2024-01-19T02:04:31.299Z,-6.25
2024-01-19T02:06:58.381Z,-6.26
2024-01-19T02:09:25.404Z,-6.30
2024-01-19T02:11:53.530Z,-6.27
2024-01-19T02:14:20.831Z,-6.22
2024-01-19T02:16:47.916Z,-6.21
2024-01-19T02:19:36.911Z,-6.20
2024-01-19T02:22:05.040Z,-6.21
2024-01-19T02:24:34.249Z,-6.32
2024-01-19T02:27:03.265Z,-6.13
2024-01-19T02:29:30.501Z,-6.20
2024-01-19T02:31:57.631Z,-6.52
2024-01-19T02:34:24.583Z,-6.27
2024-01-19T02:36:51.494Z,-6.28
2024-01-19T02:39:18.384Z,-6.22
2024-01-19T02:41:46.873Z,-6.21
2024-01-19T02:44:14.010Z,-6.20
2024-01-19T02:46:40.937Z,-6.15
2024-01-19T02:49:08.028Z,-6.12
2024-01-19T02:51:35.346Z,-6.13
2024-01-19T02:54:02.263Z,-6.10
2024-01-19T02:56:29.334Z,-6.08
2024-01-19T02:58:56.238Z,-6.10
2024-01-19T03:01:23.390Z,-6.09
2024-01-19T03:03:50.406Z,-6.02
2024-01-19T03:06:17.501Z,-5.99
2024-01-19T03:08:44.522Z,-5.96
2024-01-19T03:11:11.532Z,-5.94
2024-01-19T03:13:38.453Z,-5.95
2024-01-19T03:16:07.540Z,-5.93
2024-01-19T03:18:34.701Z,-5.97
2024-01-19T03:21:02.014Z,-5.90
2024-01-19T03:23:29.004Z,-5.89
2024-01-19T03:25:56.098Z,-5.88
2024-01-19T03:28:23.128Z,-5.87
2024-01-19T03:30:50.142Z,-5.90
2024-01-19T03:33:17.331Z,-5.92
2024-01-19T03:35:44.420Z,-5.91
2024-01-19T03:38:11.792Z,-5.94
2024-01-19T03:40:38.813Z,-5.97
2024-01-19T03:43:05.809Z,-5.94
2024-01-19T03:45:35.000Z,-5.90
2024-01-19T03:48:02.436Z,-5.88
2024-01-19T03:50:29.411Z,-5.93
2024-01-19T03:52:56.332Z,-5.95
2024-01-19T03:55:23.292Z,-5.92
2024-01-19T03:57:53.021Z,-5.88
2024-01-19T04:00:20.179Z,-5.95
2024-01-19T04:02:47.347Z,-5.94
2024-01-19T04:05:14.632Z,-5.91
2024-01-19T04:07:41.608Z,-5.92
2024-01-19T04:10:08.893Z,-6.00
2024-01-19T04:12:38.012Z,-5.95
2024-01-19T04:15:05.870Z,-5.87
2024-01-19T04:17:33.224Z,-5.85
2024-01-19T04:20:00.254Z,-5.83
2024-01-19T04:22:27.237Z,-5.79
2024-01-19T04:24:54.205Z,-5.75
2024-01-19T04:27:21.152Z,-5.68
2024-01-19T04:29:48.254Z,-5.65
2024-01-19T04:32:15.262Z,-5.60
2024-01-19T04:34:42.321Z,-5.52
2024-01-19T04:37:09.678Z,-5.46
2024-01-19T04:39:36.772Z,-5.44
2024-01-19T04:42:03.981Z,-5.42
2024-01-19T04:44:31.069Z,-5.42
2024-01-19T04:46:58.144Z,-5.41
2024-01-19T04:49:27.265Z,-5.39
2024-01-19T04:51:54.180Z,-5.40
2024-01-19T04:54:21.215Z,-5.43
2024-01-19T04:56:48.198Z,-5.53
2024-01-19T04:59:15.321Z,-5.58
2024-01-19T05:01:42.236Z,-5.63
2024-01-19T05:04:09.231Z,-6.06
2024-01-19T05:06:36.348Z,-5.72
2024-01-19T05:09:03.694Z,-5.77
2024-01-19T05:11:30.651Z,-5.81
2024-01-19T05:13:57.573Z,-5.96
2024-01-19T05:16:24.571Z,-5.87
2024-01-19T05:18:51.709Z,-5.93
2024-01-19T05:21:18.627Z,-5.89
2024-01-19T05:23:45.610Z,-5.92
2024-01-19T05:26:12.605Z,-5.91
2024-01-19T05:28:39.912Z,-5.90
2024-01-19T05:31:06.815Z,-5.86
2024-01-19T05:33:36.708Z,-5.84
2024-01-19T05:36:06.045Z,-5.77
2024-01-19T05:38:33.052Z,-5.74
2024-01-19T05:41:03.881Z,-5.73
2024-01-19T05:43:31.737Z,-5.68
2024-01-19T05:45:58.865Z,-5.63
2024-01-19T05:48:26.899Z,-5.60
2024-01-19T05:50:54.703Z,-5.56
2024-01-19T05:53:21.821Z,-5.52
2024-01-19T05:55:48.973Z,-5.48
2024-01-19T05:58:15.882Z,-5.47
2024-01-19T06:00:42.867Z,-5.44
2024-01-19T06:03:10.235Z,-5.40
2024-01-19T06:05:38.364Z,-5.40
2024-01-19T06:08:05.641Z,-5.38
2024-01-19T06:10:32.850Z,-5.35
2024-01-19T06:12:59.794Z,-5.34
2024-01-19T06:15:27.102Z,-5.36
2024-01-19T06:17:54.168Z,-5.32
2024-01-19T06:20:21.691Z,-5.30
2024-01-19T06:22:48.773Z,-5.30
2024-01-19T06:25:15.896Z,-5.47
2024-01-19T06:27:42.789Z,-5.29
2024-01-19T06:30:10.319Z,-5.27
2024-01-19T06:32:37.554Z,-5.28
2024-01-19T06:35:04.852Z,-5.26
2024-01-19T06:37:32.045Z,-5.72
2024-01-19T06:39:59.024Z,-5.21
2024-01-19T06:42:26.091Z,-5.20
2024-01-19T06:44:53.079Z,-5.18
2024-01-19T06:47:20.332Z,-5.17
2024-01-19T06:49:49.424Z,-5.14
2024-01-19T06:52:16.605Z,-5.10
2024-01-19T06:54:44.029Z,-5.11
2024-01-19T06:57:11.144Z,-5.10
2024-01-19T06:59:38.315Z,-5.09
2024-01-19T07:02:05.970Z,-5.18
2024-01-19T07:04:33.075Z,-5.01
2024-01-19T07:07:00.133Z,-5.01
2024-01-19T07:09:28.315Z,-5.00
2024-01-19T07:11:55.275Z,-5.00
2024-01-19T07:14:22.377Z,-4.98
2024-01-19T07:16:49.288Z,-4.95
2024-01-19T07:19:16.250Z,-4.88
2024-01-19T07:21:44.266Z,-4.81
2024-01-19T07:24:13.436Z,-4.78
2024-01-19T07:26:41.337Z,-4.79
2024-01-19T07:29:10.532Z,-4.69
2024-01-19T07:31:38.558Z,-4.68
2024-01-19T07:34:05.867Z,-4.70
2024-01-19T07:36:33.035Z,-4.70
2024-01-19T07:39:00.129Z,-4.68
2024-01-19T07:41:27.303Z,-4.63
2024-01-19T07:43:56.079Z,-4.60
2024-01-19T07:46:23.250Z,-4.63
2024-01-19T07:48:50.605Z,-4.59
2024-01-19T07:51:18.131Z,-4.57
2024-01-19T07:53:45.132Z,-4.54
2024-01-19T07:56:12.147Z,-4.54
2024-01-19T07:58:39.121Z,-4.53
2024-01-19T08:01:06.355Z,-4.61
2024-01-19T08:03:33.387Z,-4.61
2024-01-19T08:06:00.569Z,-4.59
2024-01-19T08:08:27.647Z,-4.62
2024-01-19T08:10:54.634Z,-4.62
2024-01-19T08:13:21.561Z,-4.59
2024-01-19T08:15:48.587Z,-4.57
2024-01-19T08:18:15.662Z,-4.61
2024-01-19T08:20:42.885Z,-4.60
2024-01-19T08:23:10.917Z,-4.57
2024-01-19T08:25:37.832Z,-4.49
2024-01-19T08:28:05.275Z,-4.47
2024-01-19T08:30:32.232Z,-4.50
2024-01-19T08:33:02.424Z,-4.39
2024-01-19T08:35:29.541Z,-4.39
2024-01-19T08:37:56.526Z,-4.32
2024-01-19T08:40:23.491Z,-4.26
2024-01-19T08:42:50.451Z,-4.26
2024-01-19T08:45:17.859Z,-4.24
2024-01-19T08:47:44.913Z,-4.21
2024-01-19T08:50:11.984Z,-4.24
2024-01-19T08:52:38.965Z,-4.24
2024-01-19T08:55:06.102Z,-4.25
2024-01-19T08:57:33.976Z,-4.15
2024-01-19T09:00:01.059Z,-4.07
2024-01-19T09:02:30.878Z,-4.03
2024-01-19T09:04:57.950Z,-4.05
2024-01-19T09:07:25.050Z,-3.95
2024-01-19T09:09:52.044Z,-3.85
2024-01-19T09:12:19.014Z,-3.73
2024-01-19T09:14:46.009Z,-3.64
2024-01-19T09:17:12.982Z,-3.51
2024-01-19T09:19:40.694Z,-3.38
2024-01-19T09:22:07.984Z,-3.35
2024-01-19T09:24:34.976Z,-3.37
2024-01-19T09:27:02.069Z,-3.36
2024-01-19T09:29:29.178Z,-3.37
2024-01-19T09:31:56.552Z,-3.36
2024-01-19T09:34:24.225Z,-3.35
2024-01-19T09:36:51.306Z,-3.43
2024-01-19T09:39:18.275Z,-3.44
2024-01-19T09:41:54.067Z,-3.49
2024-01-19T09:44:22.003Z,-3.66
2024-01-19T09:46:52.242Z,-3.61
2024-01-19T09:49:28.709Z,-3.60
2024-01-19T09:52:04.395Z,-3.59
2024-01-19T09:54:34.525Z,-3.65
2024-01-19T09:57:02.804Z,-3.69
2024-01-19T09:59:31.812Z,-3.59
2024-01-19T10:02:00.178Z,-3.55
2024-01-19T10:04:27.946Z,-3.44
2024-01-19T10:06:56.687Z,-3.34
2024-01-19T10:09:24.618Z,-3.37
2024-01-19T10:11:55.951Z,-3.46
2024-01-19T10:14:24.516Z,-3.54
2024-01-19T10:16:52.511Z,-3.52
2024-01-19T10:19:23.636Z,-3.41
2024-01-19T10:21:53.860Z,-3.40
2024-01-19T10:24:21.497Z,-3.52
2024-01-19T10:26:56.766Z,-3.42
2024-01-19T10:29:24.671Z,-3.60
2024-01-19T10:31:56.491Z,-3.50
2024-01-19T10:34:25.546Z,-3.49
2024-01-19T10:36:52.875Z,-3.66
2024-01-19T10:39:21.107Z,-3.64
2024-01-19T10:41:49.954Z,-3.77
2024-01-19T10:44:19.285Z,-3.62
2024-01-19T10:46:46.863Z,-3.66
2024-01-19T10:49:19.145Z,-3.61
2024-01-19T10:51:47.017Z,-3.70
2024-01-19T10:54:25.242Z,-3.59
2024-01-19T10:57:05.573Z,-3.50
2024-01-19T10:59:33.098Z,-3.47
2024-01-19T11:02:01.540Z,-3.42
2024-01-19T11:04:28.991Z,-3.38
2024-01-19T11:06:56.755Z,-3.34
2024-01-19T11:09:23.950Z,-3.27
2024-01-19T11:12:00.171Z,-3.25
2024-01-19T11:14:29.219Z,-3.26
2024-01-19T11:16:57.451Z,-3.22
2024-01-19T11:19:25.580Z,-3.27
2024-01-19T11:21:53.347Z,-3.33
2024-01-19T11:24:21.890Z,-3.60
2024-01-19T11:27:22.289Z,-3.51
2024-01-19T11:29:56.074Z,-3.59
2024-01-19T11:32:23.176Z,-3.65
2024-01-19T11:34:52.077Z,-3.78
2024-01-19T11:37:48.450Z,-3.90
2024-01-19T11:40:24.372Z,-4.01
2024-01-19T11:42:51.526Z,-4.15
2024-01-19T11:45:44.838Z,-4.30
2024-01-19T11:48:45.549Z,-4.36
2024-01-19T11:51:33.008Z,-4.42
2024-01-19T11:54:04.327Z,-4.48
2024-01-19T11:56:32.085Z,-4.56
2024-01-19T11:58:59.957Z,-4.62
2024-01-19T12:05:23.051Z,-4.60
2024-01-19T12:08:00.636Z,-4.66
2024-01-19T12:10:27.622Z,-4.69
2024-01-19T12:12:54.716Z,-4.70
2024-01-19T12:15:22.384Z,-4.91
2024-01-19T12:17:49.589Z,-4.94
2024-01-19T12:20:19.807Z,-4.98
2024-01-19T12:22:47.685Z,-5.07
2024-01-19T12:25:18.406Z,-5.16
2024-01-19T12:27:48.842Z,-5.18
2024-01-19T12:30:18.018Z,-5.26
2024-01-19T12:32:46.627Z,-5.40
2024-01-19T12:35:14.356Z,-5.34
2024-01-19T12:37:41.856Z,-5.33
2024-01-19T12:40:15.067Z,-5.35
2024-01-19T12:42:45.782Z,-5.37
2024-01-19T12:45:13.866Z,-5.48
2024-01-19T12:47:48.773Z,-5.61
2024-01-19T12:50:22.841Z,-5.55
2024-01-19T12:52:52.473Z,-5.59
2024-01-19T12:55:33.362Z,-5.64
2024-01-19T12:58:01.133Z,-5.84
2024-01-19T13:00:29.422Z,-5.87
2024-01-19T13:02:59.388Z,-5.79
2024-01-19T13:05:31.277Z,-5.83
2024-01-19T13:08:04.580Z,-5.90
2024-01-19T13:10:31.931Z,-5.99
2024-01-19T13:13:14.494Z,-6.05
2024-01-19T13:15:43.449Z,-6.23
2024-01-19T13:18:12.356Z,-6.21
2024-01-19T13:20:40.565Z,-6.29
2024-01-19T13:23:09.060Z,-6.37
2024-01-19T13:25:38.151Z,-6.45
2024-01-19T13:28:05.228Z,-6.53
2024-01-19T13:30:32.084Z,-6.59
2024-01-19T13:33:02.499Z,-6.66
2024-01-19T13:35:30.997Z,-6.75
2024-01-19T13:37:58.352Z,-6.85
2024-01-19T13:40:25.757Z,-6.90
2024-01-19T13:42:53.086Z,-6.96
2024-01-19T13:45:20.370Z,-7.00
2024-01-19T13:47:50.353Z,-7.01
2024-01-19T13:50:20.105Z,-7.04
2024-01-19T13:52:47.164Z,-7.07
2024-01-19T13:55:18.312Z,-7.09
2024-01-19T13:57:47.752Z,-7.14
2024-01-19T14:00:16.742Z,-7.18
2024-01-19T14:02:43.989Z,-7.22
2024-01-19T14:05:13.433Z,-7.33
2024-01-19T14:07:40.777Z,-7.44
2024-01-19T14:10:11.438Z,-7.47
2024-01-19T14:12:38.750Z,-7.51
2024-01-19T14:15:08.507Z,-7.60
2024-01-19T14:17:35.678Z,-7.69
2024-01-19T14:20:03.652Z,-7.73
2024-01-19T14:22:30.916Z,-7.76
2024-01-19T14:25:01.315Z,-7.83
2024-01-19T14:27:29.719Z,-7.86
2024-01-19T14:29:59.868Z,-7.88
2024-01-19T14:32:28.434Z,-7.89
2024-01-19T14:34:57.954Z,-7.89
2024-01-19T14:37:31.591Z,-7.91
2024-01-19T14:40:07.534Z,-7.93
2024-01-19T14:42:37.334Z,-7.93
2024-01-19T14:45:05.943Z,-7.96
2024-01-19T14:47:32.941Z,-8.01
2024-01-19T14:50:02.674Z,-8.01
2024-01-19T14:52:31.813Z,-8.02
2024-01-19T14:55:08.839Z,-8.02
2024-01-19T14:57:38.706Z,-8.07
2024-01-19T15:00:10.120Z,-8.09
2024-01-19T15:02:37.626Z,-8.09
2024-01-19T15:05:05.618Z,-8.15
2024-01-19T15:07:36.105Z,-8.12
2024-01-19T15:10:05.992Z,-8.13
2024-01-19T15:12:35.935Z,-8.16
2024-01-19T15:15:06.530Z,-8.20
2024-01-19T15:17:33.562Z,-8.18
2024-01-19T15:20:00.803Z,-8.36
2024-01-19T15:22:28.478Z,-8.22
2024-01-19T15:25:13.875Z,-8.29
2024-01-19T15:27:43.050Z,-8.46
2024-01-19T15:30:23.561Z,-8.26
2024-01-19T15:32:56.487Z,-8.30
2024-01-19T15:35:25.605Z,-8.37
2024-01-19T15:37:57.963Z,-8.33
2024-01-19T15:40:32.371Z,-8.32
2024-01-19T15:43:01.743Z,-8.33
2024-01-19T15:45:31.393Z,-8.36
2024-01-19T15:48:07.406Z,-8.37
2024-01-19T15:50:37.496Z,-8.48
2024-01-19T15:53:09.161Z,-8.38
2024-01-19T15:55:38.656Z,-8.38
2024-01-19T15:58:05.760Z,-8.41
2024-01-19T16:00:33.035Z,-8.43
2024-01-19T16:03:04.467Z,-8.42
2024-01-19T16:05:37.307Z,-8.45
2024-01-19T16:08:06.592Z,-8.42
2024-01-19T16:10:39.312Z,-8.40
2024-01-19T16:13:13.507Z,-8.39
2024-01-19T16:15:42.666Z,-8.39
2024-01-19T16:18:09.654Z,-8.38
2024-01-19T16:20:39.686Z,-8.38
2024-01-19T16:23:19.540Z,-8.41
2024-01-19T16:25:49.745Z,-8.40
2024-01-19T16:28:17.769Z,-8.42
2024-01-19T16:30:55.595Z,-8.43
2024-01-19T16:33:27.289Z,-8.49
2024-01-19T16:36:00.441Z,-8.52
2024-01-19T16:38:31.003Z,-8.50
2024-01-19T16:41:01.185Z,-8.45
2024-01-19T16:43:34.255Z,-8.44
2024-01-19T16:46:01.234Z,-8.46
2024-01-19T16:48:31.364Z,-8.48
2024-01-19T16:51:05.188Z,-8.48
2024-01-19T16:53:43.471Z,-8.50
2024-01-19T16:56:14.558Z,-8.53
2024-01-19T16:58:45.133Z,-9.13
2024-01-19T17:01:17.950Z,-8.60
2024-01-19T17:03:54.914Z,-8.63
2024-01-19T17:06:29.623Z,-8.67
2024-01-19T17:09:04.812Z,-8.69
2024-01-19T17:11:35.341Z,-8.78
2024-01-19T17:14:08.878Z,-8.76
2024-01-19T17:16:54.603Z,-8.79
2024-01-19T17:19:26.085Z,-8.80
2024-01-19T17:21:55.706Z,-8.80
2024-01-19T17:24:35.678Z,-8.78
2024-01-19T17:27:06.765Z,-8.76
2024-01-19T17:29:39.569Z,-8.77
2024-01-19T17:32:10.120Z,-8.76
2024-01-19T17:34:45.550Z,-8.78
2024-01-19T17:37:17.688Z,-8.86
2024-01-19T17:39:44.655Z,-8.88
2024-01-19T17:42:15.407Z,-8.95
2024-01-19T17:44:55.003Z,-9.01
2024-01-19T17:47:34.883Z,-9.04
2024-01-19T17:50:08.199Z,-9.05
2024-01-19T17:52:51.953Z,-9.15
2024-01-19T17:55:19.031Z,-9.20
2024-01-19T17:57:51.221Z,-9.26
2024-01-19T18:00:21.414Z,-9.33
2024-01-19T18:03:06.618Z,-9.33
2024-01-19T18:05:43.031Z,-9.42
2024-01-19T18:08:12.801Z,-9.41
2024-01-19T18:10:48.218Z,-9.48
2024-01-19T18:13:17.735Z,-9.52
2024-01-19T18:15:48.836Z,-9.56
2024-01-19T18:18:24.643Z,-9.59
2024-01-19T18:21:32.905Z,-9.71
2024-01-19T18:24:05.801Z,-9.76
2024-01-19T18:26:33.254Z,-9.77
2024-01-19T18:29:03.338Z,-9.83
2024-01-19T18:31:33.571Z,-9.88
2024-01-19T18:34:12.982Z,-9.90
2024-01-19T18:37:04.224Z,-9.90
2024-01-19T18:39:39.348Z,-9.89
2024-01-19T18:42:09.474Z,-9.94
2024-01-19T18:44:37.275Z,-9.98
2024-01-19T18:47:06.302Z,-10.01
2024-01-19T18:49:45.511Z,-9.99
2024-01-19T18:52:16.563Z,-10.08
2024-01-19T18:59:32.520Z,-10.12
2024-01-19T19:02:00.294Z,-10.15
2024-01-19T19:04:28.092Z,-10.24
2024-01-19T19:06:55.484Z,-10.28
2024-01-19T19:09:23.399Z,-10.29
2024-01-19T19:11:50.525Z,-10.34
2024-01-19T19:14:20.339Z,-10.41
2024-01-19T19:16:51.885Z,-10.46
2024-01-19T19:19:19.735Z,-10.50
2024-01-19T19:21:46.889Z,-10.51
2024-01-19T19:24:14.162Z,-10.49
2024-01-19T19:26:41.191Z,-10.52
2024-01-19T19:29:08.583Z,-10.54
2024-01-19T19:31:35.777Z,-10.56
2024-01-19T19:34:04.710Z,-10.60
2024-01-19T19:36:33.279Z,-10.64
2024-01-19T19:39:05.313Z,-10.71
2024-01-19T19:41:33.582Z,-10.84
2024-01-19T19:44:01.033Z,-10.81
2024-01-19T19:46:29.100Z,-10.84
2024-01-19T19:48:58.131Z,-11.10
2024-01-19T19:51:28.145Z,-10.93
2024-01-19T19:53:55.208Z,-11.01
2024-01-19T19:56:22.394Z,-11.19
2024-01-19T19:58:50.036Z,-11.20
2024-01-19T20:01:17.022Z,-11.11
2024-01-19T20:03:44.020Z,-11.12
2024-01-19T20:06:11.201Z,-11.32
2024-01-19T20:08:38.238Z,-11.18
2024-01-19T20:11:07.268Z,-11.20
2024-01-19T20:13:34.963Z,-11.25
2024-01-19T20:16:02.304Z,-11.30
2024-01-19T20:18:31.236Z,-11.34
2024-01-19T20:20:58.968Z,-11.40
2024-01-19T20:23:29.750Z,-11.46
2024-01-19T20:25:57.396Z,-11.47
2024-01-19T20:28:24.522Z,-11.55
2024-01-19T20:30:51.811Z,-11.64
2024-01-19T20:33:18.962Z,-11.70
2024-01-19T20:35:46.418Z,-11.87
2024-01-19T20:38:14.159Z,-11.68
2024-01-19T20:40:41.311Z,-11.70
2024-01-19T20:43:08.324Z,-11.66
2024-01-19T20:45:35.388Z,-11.71
2024-01-19T20:48:03.381Z,-11.84
2024-01-19T20:50:30.679Z,-11.64
2024-01-19T20:52:57.676Z,-11.68
2024-01-19T20:55:25.345Z,-11.65
2024-01-19T20:57:52.478Z,-11.67
2024-01-19T21:00:19.816Z,-11.69
2024-01-19T21:02:47.242Z,-11.67
2024-01-19T21:05:15.337Z,-11.83
2024-01-19T21:07:43.159Z,-11.74
2024-01-19T21:10:10.900Z,-11.72
2024-01-19T21:12:41.261Z,-11.77
2024-01-19T21:15:10.358Z,-11.80
2024-01-19T21:17:37.530Z,-11.78
2024-01-19T21:20:04.859Z,-11.82
2024-01-19T21:22:31.946Z,-11.85
2024-01-19T21:25:00.214Z,-11.84
2024-01-19T21:27:28.293Z,-11.89
2024-01-19T21:29:55.615Z,-11.96
2024-01-19T21:32:22.710Z,-11.95
2024-01-19T21:34:49.901Z,-12.02
2024-01-19T21:37:16.997Z,-12.02
2024-01-19T21:39:44.157Z,-12.01
2024-01-19T21:42:12.753Z,-12.17
2024-01-19T21:44:39.755Z,-12.59
2024-01-19T21:47:08.807Z,-12.38
2024-01-19T21:49:39.278Z,-12.31
2024-01-19T21:52:07.056Z,-12.34
2024-01-19T21:54:34.232Z,-12.25
2024-01-19T21:57:01.532Z,-12.24
2024-01-19T21:59:28.827Z,-12.27
2024-01-19T22:01:55.895Z,-12.28
2024-01-19T22:04:23.750Z,-12.31
2024-01-19T22:06:51.122Z,-12.35
2024-01-19T22:09:18.541Z,-12.40
2024-01-19T22:11:54.149Z,-12.50
2024-01-19T22:14:25.812Z,-12.62
2024-01-19T22:16:52.868Z,-12.63
2024-01-19T22:19:20.080Z,-12.67
2024-01-19T22:21:47.060Z,-12.62
2024-01-19T22:24:14.279Z,-12.57
2024-01-19T22:26:44.865Z,-12.53
2024-01-19T22:29:13.212Z,-12.50
2024-01-19T22:31:41.230Z,-12.44
2024-01-19T22:34:10.075Z,-12.54
2024-01-19T22:36:39.310Z,-12.63
2024-01-19T22:39:06.365Z,-12.67
2024-01-19T22:41:33.586Z,-12.76
2024-01-19T22:44:00.951Z,-12.87
2024-01-19T22:46:28.346Z,-12.77
2024-01-19T22:48:55.597Z,-12.75
2024-01-19T22:51:23.686Z,-12.79
2024-01-19T22:53:53.769Z,-12.82
2024-01-19T22:56:20.959Z,-12.85
2024-01-19T22:58:48.171Z,-12.94
2024-01-19T23:01:15.891Z,-13.00
2024-01-19T23:03:43.282Z,-13.00
2024-01-19T23:06:10.715Z,-13.00
2024-01-19T23:08:37.930Z,-12.98
2024-01-19T23:11:05.229Z,-13.02
2024-01-19T23:13:32.586Z,-12.98
2024-01-19T23:15:59.529Z,-12.95
2024-01-19T23:18:26.566Z,-12.92
2024-01-19T23:20:53.818Z,-12.86
2024-01-19T23:23:20.915Z,-12.88
2024-01-19T23:25:47.962Z,-12.94
2024-01-19T23:28:15.722Z,-13.04
2024-01-19T23:30:42.781Z,-12.81
2024-01-19T23:33:09.927Z,-12.80
2024-01-19T23:35:36.993Z,-12.81
2024-01-19T23:38:04.250Z,-12.92
2024-01-19T23:40:31.791Z,-12.78
2024-01-19T23:42:59.111Z,-12.70
2024-01-19T23:45:26.450Z,-12.56
2024-01-19T23:47:55.180Z,-12.51
2024-01-19T23:50:23.118Z,-12.46
2024-01-19T23:52:50.624Z,-12.43
2024-01-19T23:55:18.027Z,-12.45
2024-01-19T23:57:46.008Z,-12.41
